Michigan — WDF5344 — position and weather

sailwx.info

Track history (hours):
 
Tides and Currents Weather Stations Pressure Air Temp Water Temp Dewpoint Dewpoint Depression Visibility Wind Speed Wind Dir Waves Ship Positions

Michigan

More information available from US FCC via Universal Licensing System and Coast Guard Vessel Documentation Center.

Last reported at 2014-Sep-18 08:00 UTC. Time now 2014-Sep-20 20:06 UTC.
Position N 45°00' W 083°12'.

Length 144 m.

Type: Ship (hazmat cat D). MMSI: 303583000.

Wind from 040 at 15 knots

Waves 0.5 meters (2 feet)

Barometer 1019.2 mb
Air temperature 8.3 ° C
Visibility: greater than 10.8 NM

Date/timePositionNaut miles runAvg speedWind from/ knotsBaromVisibWave heightAir tempDewpointWater temp
2014-Sep-18 08:00N 45°00' W 083°12'20 1.4 040 / 151019.210.8 0.5 8.3
2014-Sep-17 18:00N 45°18' W 083°24'4317.5 290 / 81014.810.8 0.514.4
2014-Sep-17 15:33N 45°41' W 084°16'1729.3
2014-Sep-17 15:00N 45°24' W 084°18'2046.9 240 / 201014.510.8 0.514.4
2014-Sep-17 14:33N 45°43' W 084°30'1010.1
2014-Sep-17 13:33N 45°48' W 084°42'1010.0
2014-Sep-17 12:33N 45°50' W 084°56'10 9.9
2014-Sep-17 11:33N 45°51' W 085°10'10 9.9
2014-Sep-17 10:33N 45°53' W 085°24'10 9.8
2014-Sep-17 09:33N 45°52' W 085°38'1010.0
2014-Sep-17 08:33N 45°47' W 085°50'10 9.9
2014-Sep-17 07:33N 45°42' W 086°03'11 9.8
2014-Sep-17 06:24N 45°37' W 086°17'1110.1
2014-Sep-17 05:20N 45°32' W 086°31'18 9.4
2014-Sep-17 03:24N 45°25' W 086°55'0 0.2
2014-Sep-17 02:33N 45°25' W 086°55'1912.0
2014-Sep-17 01:00N 45°18' W 086°30'26 5.2 27.5
2014-Sep-16 20:00N 45°12' W 087°06'0 0.0 210 / 291017.910.8 1.014.9
2014-Sep-16 19:00N 45°12' W 087°06'   210 / 231018.210.8 1.014.9
2014-Sep-13 18:00N 44°18' W 088°00'0 0.0 010 / 61026.710.8 0.510.5
2014-Sep-13 16:00N 44°18' W 088°00'114 7.2 350 / 61027.010.8 0.5 8.8
2014-Sep-13 00:10N 45°44' W 086°16'710.9
2014-Sep-12 23:33N 45°49' W 086°09'1110.6
2014-Sep-12 22:33N 45°52' W 085°54'1110.9
2014-Sep-12 21:33N 45°53' W 085°39'1110.9
2014-Sep-12 20:33N 45°53' W 085°23'1110.8
2014-Sep-12 19:33N 45°52' W 085°08'1110.8
2014-Sep-12 18:33N 45°50' W 084°52'1110.5
2014-Sep-12 17:33N 45°47' W 084°38'1010.2
2014-Sep-12 16:33N 45°40' W 084°27'1 1.4
2014-Sep-12 15:33N 45°39' W 084°28'0 0.0
2014-Sep-12 14:33N 45°39' W 084°28'1729.5
2014-Sep-12 14:00N 45°24' W 084°18'1737.9 010 / 71027.710.8 0.5 9.4
2014-Sep-12 13:33N 45°39' W 084°28'0 0.0
2014-Sep-12 12:33N 45°39' W 084°28'0 0.0
2014-Sep-12 11:34N 45°39' W 084°28'1729.3
2014-Sep-12 11:00N 45°24' W 084°18'1738.3 030 / 121026.010.8 0.5 7.2
2014-Sep-12 10:34N 45°39' W 084°28'0 0.0
2014-Sep-12 09:33N 45°39' W 084°28'0 0.0
2014-Sep-12 08:34N 45°39' W 084°28'0 0.0
2014-Sep-12 07:33N 45°39' W 084°28'0 0.0
2014-Sep-12 06:34N 45°39' W 084°28'0 0.0
2014-Sep-12 05:34N 45°39' W 084°28'0 0.0
2014-Sep-12 04:34N 45°39' W 084°28'0 0.0
2014-Sep-12 03:34N 45°39' W 084°28'0 0.0
2014-Sep-12 02:33N 45°39' W 084°28'0 0.0
2014-Sep-12 01:34N 45°39' W 084°28'0 0.0
2014-Sep-12 00:34N 45°39' W 084°28'0 0.0
2014-Sep-11 23:33N 45°39' W 084°28'0 0.0
2014-Sep-11 22:34N 45°39' W 084°28'0 0.0
2014-Sep-11 21:34N 45°39' W 084°28'0 0.0
2014-Sep-11 20:34N 45°39' W 084°28'0 0.0
2014-Sep-11 19:34N 45°39' W 084°28'0 0.0
2014-Sep-11 18:33N 45°39' W 084°28'0 0.0
2014-Sep-11 17:33N 45°39' W 084°28'0 0.0
2014-Sep-11 16:34N 45°39' W 084°28'0 0.0
2014-Sep-11 15:34N 45°39' W 084°28'0 0.0
2014-Sep-11 14:34N 45°39' W 084°28'0 0.0
2014-Sep-11 13:33N 45°39' W 084°28'0 0.0
2014-Sep-11 12:34N 45°39' W 084°28'0 0.0
2014-Sep-11 11:34N 45°39' W 084°28'0 0.0
2014-Sep-11 10:34N 45°39' W 084°28'0 0.0
2014-Sep-11 09:34N 45°39' W 084°28'0 0.0
2014-Sep-11 08:34N 45°39' W 084°28'0 0.0
2014-Sep-11 07:33N 45°39' W 084°28'0 0.0
2014-Sep-11 06:33N 45°39' W 084°28'0 0.0
2014-Sep-11 05:34N 45°39' W 084°28'0 0.0
2014-Sep-11 04:33N 45°39' W 084°28'0 0.0
2014-Sep-11 03:33N 45°39' W 084°28'0 0.0
2014-Sep-11 02:34N 45°39' W 084°28'0 0.0
2014-Sep-11 01:34N 45°39' W 084°28'0 0.0
2014-Sep-11 00:34N 45°39' W 084°28'0 0.0
2014-Sep-10 23:34N 45°39' W 084°28'0 0.0
2014-Sep-10 22:33N 45°39' W 084°28'0 0.0
2014-Sep-10 21:34N 45°39' W 084°28'0 0.0
2014-Sep-10 20:33N 45°39' W 084°28'0 0.0
2014-Sep-10 19:34N 45°39' W 084°28'0 0.0
2014-Sep-10 18:33N 45°39' W 084°28'0 0.0
2014-Sep-10 17:34N 45°39' W 084°28'0 0.0
2014-Sep-10 16:34N 45°39' W 084°28'0 0.0
2014-Sep-10 15:34N 45°39' W 084°28'0 0.0
2014-Sep-10 14:33N 45°39' W 084°28'0 0.0
2014-Sep-10 13:34N 45°39' W 084°28'0 0.0
2014-Sep-10 12:34N 45°39' W 084°28'0 0.0
2014-Sep-10 11:34N 45°39' W 084°28'0 0.0
2014-Sep-10 10:34N 45°39' W 084°28'0 0.0
2014-Sep-10 09:34N 45°39' W 084°28'0 0.0
2014-Sep-10 08:34N 45°39' W 084°28'0 0.0
2014-Sep-10 07:34N 45°39' W 084°28'0 0.0
2014-Sep-10 06:33N 45°39' W 084°28'0 0.0
2014-Sep-10 05:34N 45°39' W 084°28'0 0.2
2014-Sep-10 04:33N 45°39' W 084°28'7 6.9
2014-Sep-10 03:33N 45°45' W 084°34'1010.2
2014-Sep-10 02:33N 45°49' W 084°47'916.1
2014-Sep-10 02:00N 45°48' W 085°00'3 6.8 090 / 71015.2 18.7
2014-Sep-10 01:33N 45°51' W 085°02'1010.5
2014-Sep-10 00:33N 45°52' W 085°17'1110.6
2014-Sep-09 23:33N 45°53' W 085°32'1110.5
2014-Sep-09 22:33N 45°49' W 085°46'1110.6
2014-Sep-09 21:33N 45°43' W 085°59'1110.5
2014-Sep-09 20:33N 45°39' W 086°12'1410.4
2014-Sep-09 19:12N 45°32' W 086°30'710.2
2014-Sep-09 18:32N 45°28' W 086°38'48 9.6
2014-Sep-09 13:30N 44°58' W 087°32'1010.3
2014-Sep-09 12:33N 44°51' W 087°41'35 1.3
2014-Sep-08 09:00N 44°18' W 088°00'   170 / 61019.210.8 0.517.2
Track history (hours):
 
Tides and Currents Weather Stations Pressure Air Temp Water Temp Dewpoint Dewpoint Depression Visibility Wind Speed Wind Dir Waves Ship Positions

Michigan

More information available from US FCC via Universal Licensing System and Coast Guard Vessel Documentation Center.

Last reported at 2014-Sep-18 08:00 UTC. Time now 2014-Sep-20 20:06 UTC.
Position N 45°00' W 083°12'.

Length 144 m.

Type: Ship (hazmat cat D). MMSI: 303583000.

Wind from 040 at 15 knots

Waves 0.5 meters (2 feet)

Barometer 1019.2 mb
Air temperature 8.3 ° C
Visibility: greater than 10.8 NM

Date/timePositionNaut miles runAvg speedWind from/ knotsBaromVisibWave heightAir tempDewpointWater temp
2014-Sep-18 08:00N 45°00' W 083°12'20 1.4 040 / 151019.210.8 0.5 8.3
2014-Sep-17 18:00N 45°18' W 083°24'4317.5 290 / 81014.810.8 0.514.4
2014-Sep-17 15:33N 45°41' W 084°16'1729.3
2014-Sep-17 15:00N 45°24' W 084°18'2046.9 240 / 201014.510.8 0.514.4
2014-Sep-17 14:33N 45°43' W 084°30'1010.1
2014-Sep-17 13:33N 45°48' W 084°42'1010.0
2014-Sep-17 12:33N 45°50' W 084°56'10 9.9
2014-Sep-17 11:33N 45°51' W 085°10'10 9.9
2014-Sep-17 10:33N 45°53' W 085°24'10 9.8
2014-Sep-17 09:33N 45°52' W 085°38'1010.0
2014-Sep-17 08:33N 45°47' W 085°50'10 9.9
2014-Sep-17 07:33N 45°42' W 086°03'11 9.8
2014-Sep-17 06:24N 45°37' W 086°17'1110.1
2014-Sep-17 05:20N 45°32' W 086°31'18 9.4
2014-Sep-17 03:24N 45°25' W 086°55'0 0.2
2014-Sep-17 02:33N 45°25' W 086°55'1912.0
2014-Sep-17 01:00N 45°18' W 086°30'26 5.2 27.5
2014-Sep-16 20:00N 45°12' W 087°06'0 0.0 210 / 291017.910.8 1.014.9
2014-Sep-16 19:00N 45°12' W 087°06'   210 / 231018.210.8 1.014.9
2014-Sep-13 18:00N 44°18' W 088°00'0 0.0 010 / 61026.710.8 0.510.5
2014-Sep-13 16:00N 44°18' W 088°00'114 7.2 350 / 61027.010.8 0.5 8.8
2014-Sep-13 00:10N 45°44' W 086°16'710.9
2014-Sep-12 23:33N 45°49' W 086°09'1110.6
2014-Sep-12 22:33N 45°52' W 085°54'1110.9
2014-Sep-12 21:33N 45°53' W 085°39'1110.9
2014-Sep-12 20:33N 45°53' W 085°23'1110.8
2014-Sep-12 19:33N 45°52' W 085°08'1110.8
2014-Sep-12 18:33N 45°50' W 084°52'1110.5
2014-Sep-12 17:33N 45°47' W 084°38'1010.2
2014-Sep-12 16:33N 45°40' W 084°27'1 1.4
2014-Sep-12 15:33N 45°39' W 084°28'0 0.0
2014-Sep-12 14:33N 45°39' W 084°28'1729.5
2014-Sep-12 14:00N 45°24' W 084°18'1737.9 010 / 71027.710.8 0.5 9.4
2014-Sep-12 13:33N 45°39' W 084°28'0 0.0
2014-Sep-12 12:33N 45°39' W 084°28'0 0.0
2014-Sep-12 11:34N 45°39' W 084°28'1729.3
2014-Sep-12 11:00N 45°24' W 084°18'1738.3 030 / 121026.010.8 0.5 7.2
2014-Sep-12 10:34N 45°39' W 084°28'0 0.0
2014-Sep-12 09:33N 45°39' W 084°28'0 0.0
2014-Sep-12 08:34N 45°39' W 084°28'0 0.0
2014-Sep-12 07:33N 45°39' W 084°28'0 0.0
2014-Sep-12 06:34N 45°39' W 084°28'0 0.0
2014-Sep-12 05:34N 45°39' W 084°28'0 0.0
2014-Sep-12 04:34N 45°39' W 084°28'0 0.0
2014-Sep-12 03:34N 45°39' W 084°28'0 0.0
2014-Sep-12 02:33N 45°39' W 084°28'0 0.0
2014-Sep-12 01:34N 45°39' W 084°28'0 0.0
2014-Sep-12 00:34N 45°39' W 084°28'0 0.0
2014-Sep-11 23:33N 45°39' W 084°28'0 0.0
2014-Sep-11 22:34N 45°39' W 084°28'0 0.0
2014-Sep-11 21:34N 45°39' W 084°28'0 0.0
2014-Sep-11 20:34N 45°39' W 084°28'0 0.0
2014-Sep-11 19:34N 45°39' W 084°28'0 0.0
2014-Sep-11 18:33N 45°39' W 084°28'0 0.0
2014-Sep-11 17:33N 45°39' W 084°28'0 0.0
2014-Sep-11 16:34N 45°39' W 084°28'0 0.0
2014-Sep-11 15:34N 45°39' W 084°28'0 0.0
2014-Sep-11 14:34N 45°39' W 084°28'0 0.0
2014-Sep-11 13:33N 45°39' W 084°28'0 0.0
2014-Sep-11 12:34N 45°39' W 084°28'0 0.0
2014-Sep-11 11:34N 45°39' W 084°28'0 0.0
2014-Sep-11 10:34N 45°39' W 084°28'0 0.0
2014-Sep-11 09:34N 45°39' W 084°28'0 0.0
2014-Sep-11 08:34N 45°39' W 084°28'0 0.0
2014-Sep-11 07:33N 45°39' W 084°28'0 0.0
2014-Sep-11 06:33N 45°39' W 084°28'0 0.0
2014-Sep-11 05:34N 45°39' W 084°28'0 0.0
2014-Sep-11 04:33N 45°39' W 084°28'0 0.0
2014-Sep-11 03:33N 45°39' W 084°28'0 0.0
2014-Sep-11 02:34N 45°39' W 084°28'0 0.0
2014-Sep-11 01:34N 45°39' W 084°28'0 0.0
2014-Sep-11 00:34N 45°39' W 084°28'0 0.0
2014-Sep-10 23:34N 45°39' W 084°28'0 0.0
2014-Sep-10 22:33N 45°39' W 084°28'0 0.0
2014-Sep-10 21:34N 45°39' W 084°28'0 0.0
2014-Sep-10 20:33N 45°39' W 084°28'0 0.0
2014-Sep-10 19:34N 45°39' W 084°28'0 0.0
2014-Sep-10 18:33N 45°39' W 084°28'0 0.0
2014-Sep-10 17:34N 45°39' W 084°28'0 0.0
2014-Sep-10 16:34N 45°39' W 084°28'0 0.0
2014-Sep-10 15:34N 45°39' W 084°28'0 0.0
2014-Sep-10 14:33N 45°39' W 084°28'0 0.0
2014-Sep-10 13:34N 45°39' W 084°28'0 0.0
2014-Sep-10 12:34N 45°39' W 084°28'0 0.0
2014-Sep-10 11:34N 45°39' W 084°28'0 0.0
2014-Sep-10 10:34N 45°39' W 084°28'0 0.0
2014-Sep-10 09:34N 45°39' W 084°28'0 0.0
2014-Sep-10 08:34N 45°39' W 084°28'0 0.0
2014-Sep-10 07:34N 45°39' W 084°28'0 0.0
2014-Sep-10 06:33N 45°39' W 084°28'0 0.0
2014-Sep-10 05:34N 45°39' W 084°28'0 0.2
2014-Sep-10 04:33N 45°39' W 084°28'7 6.9
2014-Sep-10 03:33N 45°45' W 084°34'1010.2
2014-Sep-10 02:33N 45°49' W 084°47'916.1
2014-Sep-10 02:00N 45°48' W 085°00'3 6.8 090 / 71015.2 18.7
2014-Sep-10 01:33N 45°51' W 085°02'1010.5
2014-Sep-10 00:33N 45°52' W 085°17'1110.6
2014-Sep-09 23:33N 45°53' W 085°32'1110.5
2014-Sep-09 22:33N 45°49' W 085°46'1110.6
2014-Sep-09 21:33N 45°43' W 085°59'1110.5
2014-Sep-09 20:33N 45°39' W 086°12'1410.4
2014-Sep-09 19:12N 45°32' W 086°30'710.2
2014-Sep-09 18:32N 45°28' W 086°38'48 9.6
2014-Sep-09 13:30N 44°58' W 087°32'1010.3
2014-Sep-09 12:33N 44°51' W 087°41'35 1.3
2014-Sep-08 09:00N 44°18' W 088°00'   170 / 61019.210.8 0.517.2

Dump ship's entire track history